Portada
METAR-TAF:

METAR-TAF

Aeropuertos :

Aeropuerto de Zaragoza

Zaragoza, España

latitud: 41-40N, longitud: 001-01W, altitud: 263 m

Observación

El informe se hizo hace 22 minutos, a las 17:30 UTC
Viento 5 kt del sureste
Temperatura 22°C
Humedad 53%
Presión 1023 hPa
Visibilidad 10 km o más
sin nubes por debajo de 1500 m y sin presencia de cumulonimbus.

METAR: LEZG 191730Z 13005KT CAVOK 22/12 Q1023

Hora: 19:52 (17:52 UTC)

Pronóstico

El informe se hizo hace 52 minutos, a las 17:00 UTC
Pronóstico válido del 19 a las 18 UTC al 20 a las 18 UTC
Viento 7 kt del este-sureste
Visibilidad 10 km o más
Escasas nubes a una altura de 4000 ft
Probabilidad 40% :
Temporalmente
del 20 a las 02 UTC al 20 a las 07 UTC
Visibilidad: 3000 m
Cielo nuboso a una altura de 1000 ft
neblina

TAF: LEZG 191700Z 1918/2018 11007KT 9999 FEW040 TX26/2014Z TN14/2006Z PROB40 TEMPO 2002/2007 3000 BR BKN010

Observaciones y pronósticos meteorológicos de más de 4000 aeropuertos (mensajes METAR y TAF).

Los puntos amarillos y rojos representan las estaciones disponibles.

Ponga el ratón en el punto deseado para ver el nombre de la estación.

Haga clic para ver las observaciones y los pronósticos meteorológicos.

Para cambiar el mapa : haga clic en los botones verdes con una cruz de color negro para hacer un zoom, en el botón verde con un guión para alejar o en las flechas verdes para mapas adyacentes.


METAR-TAF: